Time;durP1;ratioP1;P1;durP2;ratioP2;P2;SDS_P1;SDS_P2;PMS_P1;PMS_P2;Temp;Humidity;BMP_temperature;BMP_pressure;BME280_temperature;BME280_humidity;BME280_pressure;Samples;Min_cycle;Max_cycle;Signal;HPM_P1;HPM_P2
2021/12/05 08:15:13;;;;;;;7.85;5.88;;;;;;;;;;6249373;23;20011;-91
2021/12/05 08:17:39;;;;;;;10.63;6.90;;;;;;;;;;6247569;23;20075;-84
2021/12/05 08:20:09;;;;;;;10.02;7.38;;;;;;;;;;6247295;23;20004;-83
2021/12/05 12:17:23;;;;;;;1.83;1.52;;;;;;;;;;6233524;22;20432;-87
2021/12/05 12:19:54;;;;;;;1.35;1.05;;;;;;;;;;6191071;23;20426;-85
2021/12/05 12:22:21;;;;;;;1.80;1.58;;;;;;;;;;6217407;23;20000;-83
2021/12/05 12:25:01;;;;;;;2.97;2.67;;;;;;;;;;6217362;23;20062;-83
2021/12/05 12:27:27;;;;;;;2.20;2.00;;;;;;;;;;6217363;23;20004;-85
2021/12/05 12:29:57;;;;;;;2.78;2.20;;;;;;;;;;6217351;23;20004;-82
2021/12/05 12:32:27;;;;;;;;;;;;;;;;;;6217789;23;20004;-82
2021/12/05 12:35:03;;;;;;;2.88;2.20;;;;;;;;;;6217180;23;20239;-83
2021/12/05 12:37:28;;;;;;;2.88;2.30;;;;;;;;;;6217251;23;20004;-81
2021/12/05 12:39:54;;;;;;;2.80;2.10;;;;;;;;;;6217064;23;20012;-85
2021/12/05 12:42:23;;;;;;;2.40;2.05;;;;;;;;;;6216939;23;20004;-81
2021/12/05 12:44:56;;;;;;;2.10;1.70;;;;;;;;;;6190551;23;20368;-85
2021/12/05 12:47:49;;;;;;;2.25;1.77;;;;;;;;;;6217095;23;20000;-82
2021/12/05 12:50:25;;;;;;;2.60;2.08;;;;;;;;;;6200950;23;20023;-84
2021/12/05 12:53:00;;;;;;;2.67;1.50;;;;;;;;;;6216831;23;20336;-85
2021/12/05 12:55:36;;;;;;;1.92;1.30;;;;;;;;;;6217185;23;20420;-85
2021/12/05 12:58:05;;;;;;;1.30;1.10;;;;;;;;;;6190774;23;20005;-86
2021/12/05 13:00:32;;;;;;;1.63;1.02;;;;;;;;;;6192278;23;20008;-95
2021/12/05 13:03:13;;;;;;;0.85;0.85;;;;;;;;;;6194039;23;20005;-91
2021/12/05 13:11:17;;;;;;;1.58;1.00;;;;;;;;;;6219540;23;20035;-94
2021/12/05 13:13:46;;;;;;;1.33;1.10;;;;;;;;;;6193850;23;20016;-89
2021/12/05 13:16:19;;;;;;;1.13;1.00;;;;;;;;;;6220303;23;20012;-90
2021/12/05 13:18:49;;;;;;;4.15;3.42;;;;;;;;;;6193210;23;20058;-83
2021/12/05 13:21:17;;;;;;;;;;;;;;;;;;6190490;23;20063;-84
2021/12/05 13:23:50;;;;;;;2.13;1.40;;;;;;;;;;6189963;23;19919;-83
2021/12/05 13:26:39;;;;;;;0.85;0.85;;;;;;;;;;6216846;23;20335;-83
2021/12/05 13:29:27;;;;;;;0.90;0.90;;;;;;;;;;6208353;23;20040;-84
2021/12/05 13:32:17;;;;;;;3.53;2.05;;;;;;;;;;6216635;23;20009;-83
2021/12/05 13:34:54;;;;;;;4.67;2.23;;;;;;;;;;6190211;23;20004;-86
2021/12/05 13:37:35;;;;;;;1.58;1.48;;;;;;;;;;6189901;23;20004;-85
2021/12/05 13:40:14;;;;;;;1.50;1.20;;;;;;;;;;6216717;23;20071;-85
2021/12/05 13:42:51;;;;;;;1.27;1.10;;;;;;;;;;6189999;23;20332;-85
2021/12/05 13:45:25;;;;;;;1.10;1.00;;;;;;;;;;6189815;23;20039;-84
2021/12/05 13:47:51;;;;;;;1.63;1.30;;;;;;;;;;6190040;23;20032;-84
2021/12/05 13:50:16;;;;;;;1.30;1.20;;;;;;;;;;6190078;23;20005;-85
2021/12/05 13:52:45;;;;;;;1.65;1.20;;;;;;;;;;6216556;23;20328;-84
2021/12/05 13:55:33;;;;;;;1.40;1.30;;;;;;;;;;6216102;23;19996;-84
2021/12/05 13:58:19;;;;;;;1.38;1.25;;;;;;;;;;6189440;23;20013;-84
2021/12/05 14:01:11;;;;;;;2.00;1.30;;;;;;;;;;6189519;23;20012;-84
2021/12/05 14:03:47;;;;;;;1.80;1.27;;;;;;;;;;6189579;23;20012;-84
2021/12/05 14:06:34;;;;;;;3.05;1.40;;;;;;;;;;6189851;23;20012;-84
2021/12/05 14:09:38;;;;;;;0.90;0.90;;;;;;;;;;6214765;23;20454;-84
2021/12/05 14:12:19;;;;;;;1.20;1.10;;;;;;;;;;6216274;23;20019;-84
2021/12/05 14:14:59;;;;;;;2.08;1.63;;;;;;;;;;6189755;23;20011;-83
2021/12/05 14:17:26;;;;;;;1.00;0.95;;;;;;;;;;6216139;23;20343;-84
2021/12/05 14:20:07;;;;;;;1.67;1.25;;;;;;;;;;6215870;23;20075;-84
2021/12/05 14:22:35;;;;;;;1.30;1.20;;;;;;;;;;6191031;23;20012;-84
2021/12/05 14:25:06;;;;;;;0.82;0.82;;;;;;;;;;6189393;23;20001;-84
2021/12/05 14:27:35;;;;;;;2.33;1.00;;;;;;;;;;6216099;23;20005;-85
2021/12/05 14:30:04;;;;;;;1.77;1.20;;;;;;;;;;6214415;23;20432;-84
2021/12/05 14:32:31;;;;;;;1.70;1.30;;;;;;;;;;6215804;23;20005;-84
2021/12/05 14:35:05;;;;;;;1.95;1.50;;;;;;;;;;6189071;23;20331;-85
2021/12/05 14:37:33;;;;;;;1.95;1.70;;;;;;;;;;6189494;23;20001;-85
2021/12/05 14:40:11;;;;;;;2.63;1.60;;;;;;;;;;6189221;23;20435;-84
2021/12/05 14:42:43;;;;;;;3.00;1.48;;;;;;;;;;6189318;23;20083;-84
2021/12/05 14:45:18;;;;;;;1.70;1.50;;;;;;;;;;6189382;23;20007;-84
2021/12/05 14:47:45;;;;;;;2.88;2.13;;;;;;;;;;6189664;23;20332;-85
2021/12/05 14:50:14;;;;;;;1.85;1.23;;;;;;;;;;6215979;23;20007;-85
2021/12/05 14:52:43;;;;;;;2.05;1.60;;;;;;;;;;6216212;23;20004;-85
2021/12/05 14:55:12;;;;;;;1.27;1.17;;;;;;;;;;6216210;23;20020;-86
2021/12/05 14:57:46;;;;;;;1.58;0.80;;;;;;;;;;6216136;23;20011;-85
2021/12/05 15:00:12;;;;;;;1.30;0.95;;;;;;;;;;6189154;23;20050;-86
2021/12/05 15:02:39;;;;;;;1.63;1.33;;;;;;;;;;6215818;23;20052;-85
2021/12/05 15:05:09;;;;;;;1.52;1.10;;;;;;;;;;6215955;23;20000;-86
2021/12/05 15:07:35;;;;;;;1.70;1.42;;;;;;;;;;6215977;23;20001;-85
2021/12/05 15:10:01;;;;;;;1.55;1.00;;;;;;;;;;6215979;23;20009;-84
2021/12/05 15:12:29;;;;;;;1.70;1.00;;;;;;;;;;6215752;23;20011;-85
2021/12/05 15:17:26;;;;;;;0.98;0.90;;;;;;;;;;6246094;22;20102;-88
2021/12/05 15:19:58;;;;;;;1.35;0.90;;;;;;;;;;6243678;23;20003;-87
2021/12/05 15:22:23;;;;;;;1.13;1.00;;;;;;;;;;6236289;23;20009;-85
2021/12/05 15:24:55;;;;;;;1.45;1.35;;;;;;;;;;6189261;23;20391;-86
2021/12/05 15:27:24;;;;;;;1.63;1.13;;;;;;;;;;6216314;23;20371;-86
2021/12/05 15:30:13;;;;;;;1.98;1.65;;;;;;;;;;6188258;23;20062;-85
2021/12/05 15:32:39;;;;;;;1.58;1.23;;;;;;;;;;6171175;23;20091;-85
2021/12/05 15:35:09;;;;;;;1.48;1.23;;;;;;;;;;6217601;23;19997;-85
2021/12/05 15:37:34;;;;;;;;;;;;;;;;;;6191892;23;20446;-86
2021/12/05 15:40:03;;;;;;;1.55;1.02;;;;;;;;;;6191156;23;19943;-86
2021/12/05 15:42:35;;;;;;;1.88;1.30;;;;;;;;;;6191010;23;20119;-84
2021/12/05 15:45:05;;;;;;;2.03;1.20;;;;;;;;;;6191070;23;20012;-84
2021/12/05 15:47:31;;;;;;;;;;;;;;;;;;6218247;23;20031;-85
2021/12/05 15:49:59;;;;;;;1.58;0.95;;;;;;;;;;6190774;23;19908;-84
2021/12/05 15:52:37;;;;;;;2.03;1.23;;;;;;;;;;6190816;23;20050;-86
2021/12/05 15:55:08;;;;;;;1.02;0.98;;;;;;;;;;6190966;23;20013;-86
2021/12/05 15:57:37;;;;;;;0.80;0.80;;;;;;;;;;6191210;23;20394;-86
2021/12/05 16:00:15;;;;;;;1.40;1.30;;;;;;;;;;6166313;23;20027;-85
2021/12/05 16:02:42;;;;;;;1.75;1.17;;;;;;;;;;6190862;23;20074;-86
2021/12/05 16:05:19;;;;;;;1.35;1.25;;;;;;;;;;6217866;23;20005;-85
2021/12/05 16:07:45;;;;;;;1.10;1.00;;;;;;;;;;6191043;23;20008;-85
2021/12/05 16:10:17;;;;;;;1.73;1.60;;;;;;;;;;6217318;23;20135;-85
2021/12/05 16:12:44;;;;;;;8.85;4.40;;;;;;;;;;6217217;23;20012;-84
2021/12/05 16:15:11;;;;;;;4.07;2.60;;;;;;;;;;6191068;23;20007;-84
2021/12/05 16:17:37;;;;;;;2.05;1.45;;;;;;;;;;6192086;23;20015;-84
2021/12/05 16:20:21;;;;;;;1.42;1.33;;;;;;;;;;6217211;23;20008;-85
2021/12/05 16:23:10;;;;;;;1.65;1.00;;;;;;;;;;6217273;23;20004;-84
2021/12/05 16:25:39;;;;;;;0.85;0.85;;;;;;;;;;6217244;23;20012;-85
2021/12/05 16:28:06;;;;;;;1.00;0.90;;;;;;;;;;6190394;23;20051;-84
2021/12/05 16:30:36;;;;;;;1.13;1.02;;;;;;;;;;6217047;23;19996;-84
2021/12/05 16:33:04;;;;;;;1.75;1.38;;;;;;;;;;6189896;23;20036;-83
2021/12/05 16:35:36;;;;;;;1.45;1.25;;;;;;;;;;6216957;23;20427;-84
2021/12/05 16:38:19;;;;;;;1.27;1.17;;;;;;;;;;6190149;23;20431;-84
2021/12/05 16:41:02;;;;;;;1.30;1.20;;;;;;;;;;6189802;23;20031;-83
2021/12/05 16:43:30;;;;;;;1.45;1.08;;;;;;;;;;6217077;23;20063;-85
2021/12/05 16:46:12;;;;;;;1.17;1.08;;;;;;;;;;6217310;23;20028;-83
2021/12/05 16:48:39;;;;;;;1.13;1.02;;;;;;;;;;6190483;23;20083;-83
2021/12/05 16:51:15;;;;;;;4.55;2.00;;;;;;;;;;6217097;23;20009;-84
2021/12/05 16:53:46;;;;;;;2.70;1.60;;;;;;;;;;6217059;23;20445;-85
2021/12/05 16:56:14;;;;;;;2.20;1.50;;;;;;;;;;6217140;23;20359;-80
2021/12/05 16:58:44;;;;;;;1.88;1.30;;;;;;;;;;6216503;23;20005;-80
2021/12/05 17:01:20;;;;;;;1.58;1.15;;;;;;;;;;6215718;23;20424;-80
2021/12/05 17:03:46;;;;;;;1.55;1.25;;;;;;;;;;6216732;23;20008;-80
2021/12/05 17:06:15;;;;;;;1.90;1.23;;;;;;;;;;6216680;23;20440;-80
2021/12/05 17:08:45;;;;;;;1.15;0.88;;;;;;;;;;6216923;23;20419;-81
2021/12/05 17:11:11;;;;;;;;;;;;;;;;;;6217242;23;20004;-80
2021/12/05 17:13:38;;;;;;;1.70;1.35;;;;;;;;;;6216641;23;19908;-81
2021/12/05 17:16:06;;;;;;;1.27;1.02;;;;;;;;;;6215632;23;20370;-80
2021/12/05 17:18:36;;;;;;;4.55;4.07;;;;;;;;;;6190059;23;20004;-81
2021/12/05 17:21:25;;;;;;;14.85;7.25;;;;;;;;;;6216753;23;20004;-81
2021/12/05 17:24:01;;;;;;;3.03;2.00;;;;;;;;;;6215734;23;20043;-80
2021/12/05 17:26:36;;;;;;;2.42;1.73;;;;;;;;;;6190028;23;20012;-80
2021/12/05 17:29:01;;;;;;;1.25;1.10;;;;;;;;;;6216357;23;20424;-81
2021/12/05 17:31:32;;;;;;;1.13;1.02;;;;;;;;;;6216140;23;20054;-80
2021/12/05 17:34:07;;;;;;;1.65;0.93;;;;;;;;;;6216415;23;20012;-81
2021/12/05 17:36:37;;;;;;;6.78;4.40;;;;;;;;;;6216314;23;19997;-81
2021/12/05 17:39:16;;;;;;;1.67;1.48;;;;;;;;;;6216637;23;20080;-80
2021/12/05 17:41:44;;;;;;;3.65;1.58;;;;;;;;;;6216358;23;20008;-81
2021/12/05 17:44:11;;;;;;;4.20;2.85;;;;;;;;;;6216059;23;20011;-82
2021/12/05 17:46:38;;;;;;;5.40;3.55;;;;;;;;;;6216258;23;20011;-81
2021/12/05 17:49:07;;;;;;;3.72;2.40;;;;;;;;;;6216095;23;20004;-81
2021/12/05 17:51:37;;;;;;;5.13;3.33;;;;;;;;;;6216141;23;20030;-81
2021/12/05 17:54:04;;;;;;;;;;;;;;;;;;6217048;23;20005;-82
2021/12/05 17:56:50;;;;;;;2.63;2.08;;;;;;;;;;6216417;23;20208;-81
2021/12/05 18:04:34;;;;;;;3.00;2.30;;;;;;;;;;6216536;23;20015;-81
2021/12/05 18:06:59;;;;;;;1.85;1.67;;;;;;;;;;6189551;23;20004;-81
2021/12/05 18:09:25;;;;;;;3.00;1.90;;;;;;;;;;6216237;23;20001;-81
2021/12/05 18:11:51;;;;;;;3.42;2.55;;;;;;;;;;6216192;23;20000;-81
2021/12/05 18:14:18;;;;;;;3.65;1.80;;;;;;;;;;6216352;23;20004;-81
2021/12/05 18:16:44;;;;;;;2.47;1.50;;;;;;;;;;6216043;23;20017;-81
2021/12/05 18:19:14;;;;;;;2.72;2.40;;;;;;;;;;6216456;23;20008;-81
2021/12/05 18:21:40;;;;;;;11.20;8.20;;;;;;;;;;6216150;23;20008;-81
2021/12/05 18:24:10;;;;;;;13.00;7.07;;;;;;;;;;6215909;23;19996;-80
2021/12/05 18:26:37;;;;;;;14.60;8.32;;;;;;;;;;6190282;23;20004;-80
2021/12/05 18:29:04;;;;;;;6.60;3.88;;;;;;;;;;6216093;23;20001;-81
2021/12/05 18:31:34;;;;;;;6.60;3.60;;;;;;;;;;6215566;23;20004;-80
2021/12/05 18:34:05;;;;;;;2.35;2.10;;;;;;;;;;6215702;23;20436;-81
2021/12/05 18:36:32;;;;;;;3.70;2.45;;;;;;;;;;6215614;23;20009;-81
2021/12/05 18:38:59;;;;;;;4.95;3.45;;;;;;;;;;6215876;23;20009;-80
2021/12/05 18:41:27;;;;;;;3.78;3.08;;;;;;;;;;6215599;23;20004;-81
2021/12/05 18:43:53;;;;;;;4.57;3.60;;;;;;;;;;6215637;23;20309;-80
2021/12/05 18:46:19;;;;;;;4.88;3.00;;;;;;;;;;6215701;23;20051;-81
2021/12/05 18:48:46;;;;;;;6.95;4.30;;;;;;;;;;6215811;23;20008;-80
2021/12/05 18:51:13;;;;;;;5.65;4.45;;;;;;;;;;6215978;23;20090;-81
2021/12/05 18:53:39;;;;;;;6.90;3.70;;;;;;;;;;6215792;23;20011;-82
2021/12/05 18:56:05;;;;;;;3.53;2.75;;;;;;;;;;6189709;23;20072;-81
2021/12/05 18:58:32;;;;;;;7.38;4.07;;;;;;;;;;6215909;23;20399;-82
2021/12/05 19:06:38;;;;;;;3.58;2.58;;;;;;;;;;6216266;23;20063;-80
2021/12/05 19:11:44;;;;;;;1.80;1.70;;;;;;;;;;6215920;23;20332;-80
2021/12/05 19:14:14;;;;;;;13.48;6.78;;;;;;;;;;6215938;23;20000;-80
2021/12/05 19:16:41;;;;;;;4.85;3.20;;;;;;;;;;6215842;23;20031;-80
2021/12/05 19:19:08;;;;;;;9.77;5.90;;;;;;;;;;6216051;23;20001;-81
2021/12/05 19:21:35;;;;;;;7.05;4.70;;;;;;;;;;6215880;23;20130;-82
2021/12/05 19:24:01;;;;;;;5.63;3.78;;;;;;;;;;6215796;23;20000;-79
